Time;durP1;ratioP1;P1;durP2;ratioP2;P2;SDS_P1;SDS_P2;PMS_P1;PMS_P2;Temp;Humidity;BMP_temperature;BMP_pressure;BME280_temperature;BME280_humidity;BME280_pressure;Samples;Min_cycle;Max_cycle;Signal;HPM_P1;HPM_P2
2023/02/20 00:01:01;;;;;;;0.20;0.20;;;5.60;99.90;;;;;;5014016;28;20014;-76
2023/02/20 00:03:26;;;;;;;0.10;0.10;;;5.70;99.90;;;;;;5013884;28;20034;-76
2023/02/20 00:05:52;;;;;;;0.10;0.10;;;5.70;99.90;;;;;;5014036;28;20033;-77
2023/02/20 00:08:18;;;;;;;0.10;0.10;;;5.70;99.90;;;;;;5015469;28;20483;-76
2023/02/20 00:10:43;;;;;;;0.10;0.10;;;5.70;99.90;;;;;;5010482;28;20036;-75
2023/02/20 00:13:09;;;;;;;0.10;0.10;;;5.70;99.90;;;;;;5015344;28;20037;-77
2023/02/20 00:15:34;;;;;;;0.10;0.10;;;5.70;99.90;;;;;;5015189;28;20036;-77
2023/02/20 00:18:00;;;;;;;0.10;0.10;;;5.70;99.90;;;;;;5014435;28;20117;-77
2023/02/20 00:20:26;;;;;;;0.10;0.10;;;5.70;99.90;;;;;;5014171;28;20501;-77
2023/02/20 00:22:53;;;;;;;0.10;0.10;;;5.70;99.90;;;;;;5013631;28;20491;-77
2023/02/20 00:25:20;;;;;;;0.10;0.10;;;5.70;99.90;;;;;;5015157;28;20022;-76
2023/02/20 00:27:46;;;;;;;0.10;0.10;;;5.70;99.90;;;;;;5015230;28;20022;-76
2023/02/20 00:30:18;;;;;;;0.10;0.10;;;5.70;99.90;;;;;;5013559;28;20030;-77
2023/02/20 00:32:46;;;;;;;0.10;0.10;;;5.70;99.90;;;;;;5015017;28;20026;-75
2023/02/20 00:35:12;;;;;;;0.10;0.10;;;5.80;99.90;;;;;;5014790;28;20018;-76
2023/02/20 00:37:37;;;;;;;0.10;0.10;;;5.80;99.90;;;;;;5013650;28;20076;-76
2023/02/20 00:40:03;;;;;;;0.10;0.10;;;5.70;99.90;;;;;;5013656;28;20550;-76
2023/02/20 00:42:29;;;;;;;0.10;0.10;;;5.70;99.90;;;;;;5014577;28;20030;-77
2023/02/20 00:44:54;;;;;;;0.10;0.10;;;5.80;99.90;;;;;;5014558;28;20040;-76
2023/02/20 00:47:20;;;;;;;0.10;0.10;;;5.70;99.90;;;;;;5029829;28;20109;-76
2023/02/20 00:49:48;;;;;;;0.10;0.10;;;5.70;99.90;;;;;;5034031;28;20512;-77
2023/02/20 00:52:14;;;;;;;0.10;0.10;;;5.70;99.90;;;;;;5028964;28;20603;-77
2023/02/20 00:54:39;;;;;;;0.10;0.10;;;5.70;99.90;;;;;;5014482;28;20033;-77
2023/02/20 00:57:05;;;;;;;0.00;0.00;;;5.80;99.90;;;;;;5014382;28;20025;-76
2023/02/20 00:59:30;;;;;;;0.10;0.10;;;5.80;99.90;;;;;;5013528;28;20022;-76
2023/02/20 01:01:56;;;;;;;0.00;0.00;;;5.80;99.90;;;;;;5014262;28;20495;-76
2023/02/20 01:04:22;;;;;;;0.08;0.08;;;5.80;99.90;;;;;;5013941;28;20522;-76
2023/02/20 01:06:47;;;;;;;0.03;0.03;;;5.80;99.90;;;;;;5010045;28;20023;-76
2023/02/20 01:09:13;;;;;;;0.10;0.10;;;5.80;99.90;;;;;;4994439;28;20479;-76
2023/02/20 01:11:41;;;;;;;0.05;0.05;;;5.80;99.90;;;;;;4994319;28;20018;-77
2023/02/20 01:14:07;;;;;;;0.10;0.10;;;5.70;99.90;;;;;;5010439;28;20096;-76
2023/02/20 01:16:32;;;;;;;0.00;0.00;;;5.70;99.90;;;;;;5014015;28;20511;-77
2023/02/20 01:18:58;;;;;;;0.10;0.10;;;5.70;99.90;;;;;;5013923;28;20491;-76
2023/02/20 01:21:23;;;;;;;0.10;0.10;;;5.80;99.90;;;;;;5033821;23;20377;-74
2023/02/20 01:23:49;;;;;;;0.00;0.00;;;5.70;99.90;;;;;;4996013;28;20113;-75
2023/02/20 01:26:15;;;;;;;0.00;0.00;;;5.80;99.90;;;;;;4995766;28;20559;-74
2023/02/20 01:28:44;;;;;;;0.10;0.10;;;5.70;99.90;;;;;;4995956;28;20026;-74
2023/02/20 01:31:10;;;;;;;0.10;0.10;;;5.70;99.90;;;;;;4996319;28;20054;-74
2023/02/20 01:33:38;;;;;;;0.10;0.10;;;5.70;99.90;;;;;;4974560;28;20065;-74
2023/02/20 01:36:05;;;;;;;0.00;0.00;;;5.70;99.90;;;;;;4976214;28;20031;-75
2023/02/20 01:38:31;;;;;;;0.10;0.10;;;5.80;99.90;;;;;;4975740;28;20031;-74
2023/02/20 01:40:56;;;;;;;0.10;0.10;;;5.80;99.90;;;;;;4976257;28;20034;-75
2023/02/20 01:43:22;;;;;;;0.05;0.05;;;5.80;99.90;;;;;;4974934;28;20030;-75
2023/02/20 01:45:47;;;;;;;0.10;0.10;;;5.80;99.90;;;;;;4976401;28;20025;-75
2023/02/20 01:48:24;;;;;;;0.10;0.10;;;5.90;99.90;;;;;;4975798;28;20042;-75
2023/02/20 01:50:55;;;;;;;0.00;0.00;;;5.90;99.90;;;;;;4974299;28;20030;-75
2023/02/20 01:53:23;;;;;;;0.08;0.08;;;5.90;99.90;;;;;;4976241;28;20034;-75
2023/02/20 01:56:03;;;;;;;0.10;0.10;;;6.00;99.90;;;;;;4975894;28;20044;-75
2023/02/20 01:58:47;;;;;;;0.00;0.00;;;6.00;99.90;;;;;;4975674;28;20045;-75
2023/02/20 02:01:12;;;;;;;0.10;0.10;;;6.00;99.90;;;;;;4975826;28;20431;-75
2023/02/20 02:03:46;;;;;;;0.10;0.10;;;6.10;99.90;;;;;;4975182;28;20033;-75
2023/02/20 02:06:15;;;;;;;;;;;6.10;99.90;;;;;;4976384;28;20019;-75
2023/02/20 02:08:44;;;;;;;0.10;0.10;;;6.10;99.90;;;;;;4974679;28;19913;-75
2023/02/20 02:11:16;;;;;;;0.10;0.10;;;6.10;99.90;;;;;;4976501;28;20102;-75
2023/02/20 02:13:43;;;;;;;0.10;0.10;;;6.20;99.90;;;;;;4976370;28;20027;-75
2023/02/20 02:16:25;;;;;;;0.10;0.10;;;6.20;99.90;;;;;;4976349;28;20263;-75
2023/02/20 02:19:12;;;;;;;0.10;0.10;;;6.20;99.90;;;;;;4974770;28;20034;-75
2023/02/20 02:22:11;;;;;;;0.00;0.00;;;6.20;99.90;;;;;;4980930;28;20027;-75
2023/02/20 02:25:11;;;;;;;0.10;0.10;;;6.20;99.90;;;;;;4982485;28;20023;-76
2023/02/20 02:27:59;;;;;;;0.10;0.10;;;6.30;99.90;;;;;;4982707;28;20392;-76
2023/02/20 02:31:01;;;;;;;0.10;0.10;;;6.30;99.90;;;;;;4983264;28;20416;-75
2023/02/20 02:34:10;;;;;;;0.10;0.10;;;6.30;99.90;;;;;;4980779;28;20403;-75
2023/02/20 02:37:01;;;;;;;0.00;0.00;;;6.20;99.90;;;;;;4982988;28;20097;-75
2023/02/20 02:39:35;;;;;;;0.10;0.10;;;6.30;99.90;;;;;;4982504;28;20046;-76
2023/02/20 02:42:23;;;;;;;0.00;0.00;;;6.30;99.90;;;;;;4981369;28;20073;-76
2023/02/20 02:45:02;;;;;;;0.10;0.10;;;6.20;99.90;;;;;;4982857;28;20026;-75
2023/02/20 02:47:48;;;;;;;0.10;0.10;;;6.30;99.90;;;;;;4982815;28;20030;-76
2023/02/20 02:50:25;;;;;;;0.10;0.10;;;6.30;99.90;;;;;;4981227;28;20027;-76
2023/02/20 02:52:52;;;;;;;0.10;0.10;;;6.30;99.90;;;;;;4982014;28;20090;-76
2023/02/20 02:55:27;;;;;;;0.10;0.10;;;6.40;99.90;;;;;;4982420;28;20110;-76
2023/02/20 02:57:53;;;;;;;0.10;0.10;;;6.40;99.90;;;;;;4982819;28;20404;-76
2023/02/20 03:00:33;;;;;;;0.05;0.05;;;6.40;99.90;;;;;;4982127;28;20472;-76
2023/02/20 03:03:24;;;;;;;0.10;0.10;;;6.40;99.90;;;;;;4981823;28;20033;-76
2023/02/20 03:05:53;;;;;;;0.05;0.05;;;6.40;99.90;;;;;;4981891;28;20023;-76
2023/02/20 03:08:38;;;;;;;0.10;0.10;;;6.40;99.90;;;;;;4981342;28;20117;-76
2023/02/20 03:11:07;;;;;;;0.08;0.08;;;6.40;99.90;;;;;;4982689;28;20033;-76
2023/02/20 03:16:55;;;;;;;0.00;0.00;;;6.50;99.90;;;;;;4982408;28;20038;-75
2023/02/20 03:19:34;;;;;;;0.03;0.03;;;6.50;99.90;;;;;;4982308;28;20037;-76
2023/02/20 03:22:03;;;;;;;0.10;0.10;;;6.50;99.90;;;;;;4982320;28;20031;-76
2023/02/20 03:24:32;;;;;;;0.10;0.10;;;6.50;99.90;;;;;;4982140;28;20027;-76
2023/02/20 03:26:59;;;;;;;0.00;0.00;;;6.50;99.90;;;;;;4981979;28;20030;-76
2023/02/20 03:29:35;;;;;;;0.10;0.10;;;6.60;99.90;;;;;;4982077;28;20027;-76
2023/02/20 03:43:20;;;;;;;0.10;0.10;;;6.60;99.90;;;;;;4978374;28;20070;-76
2023/02/20 03:45:51;;;;;;;0.10;0.10;;;6.60;99.90;;;;;;4978283;28;20023;-76
2023/02/20 03:48:29;;;;;;;0.00;0.00;;;6.60;99.90;;;;;;4978768;28;20030;-76
2023/02/20 03:53:41;;;;;;;0.10;0.10;;;6.60;99.90;;;;;;4978827;28;20105;-76
2023/02/20 03:56:30;;;;;;;0.10;0.10;;;6.70;99.90;;;;;;4978323;28;20392;-75
2023/02/20 03:59:07;;;;;;;0.03;0.03;;;6.70;99.90;;;;;;4959087;29;20024;-76
2023/02/20 04:01:35;;;;;;;0.00;0.00;;;6.70;99.90;;;;;;4973524;28;20089;-75
2023/02/20 04:04:02;;;;;;;0.00;0.00;;;6.70;99.90;;;;;;4973124;28;20468;-76
2023/02/20 04:06:31;;;;;;;0.10;0.10;;;6.70;99.90;;;;;;4993236;28;20034;-76
2023/02/20 04:09:07;;;;;;;0.10;0.10;;;6.70;99.90;;;;;;4978335;28;20481;-76
2023/02/20 04:11:40;;;;;;;0.10;0.10;;;6.80;99.90;;;;;;4977986;28;20023;-76
2023/02/20 04:14:07;;;;;;;0.10;0.10;;;6.80;99.90;;;;;;4993271;28;20395;-76
2023/02/20 04:16:42;;;;;;;0.10;0.10;;;6.80;99.90;;;;;;4977460;28;20134;-76
2023/02/20 04:19:08;;;;;;;0.10;0.10;;;6.80;99.90;;;;;;4993879;28;20027;-76
2023/02/20 04:21:41;;;;;;;0.00;0.00;;;6.80;99.90;;;;;;4977457;28;20042;-76
2023/02/20 04:24:31;;;;;;;0.10;0.10;;;6.80;99.90;;;;;;4978020;28;20389;-77
2023/02/20 04:26:57;;;;;;;0.10;0.10;;;6.80;99.90;;;;;;4987276;28;20022;-77
2023/02/20 04:29:24;;;;;;;0.10;0.10;;;6.80;99.90;;;;;;4994376;28;20034;-76
2023/02/20 04:31:50;;;;;;;0.10;0.10;;;6.80;99.90;;;;;;4977636;28;20031;-77
2023/02/20 04:34:16;;;;;;;0.10;0.10;;;6.80;99.90;;;;;;4976635;28;20027;-76
2023/02/20 04:36:41;;;;;;;0.10;0.10;;;6.80;99.90;;;;;;4977913;28;20477;-76
2023/02/20 04:39:07;;;;;;;0.00;0.00;;;6.80;99.90;;;;;;4977762;28;20030;-76
2023/02/20 04:41:35;;;;;;;0.10;0.10;;;6.80;99.90;;;;;;4977361;28;20070;-76
2023/02/20 04:46:44;;;;;;;;;;;6.80;99.90;;;;;;4965976;28;20110;-76
2023/02/20 04:49:12;;;;;;;0.10;0.10;;;6.80;99.90;;;;;;4976300;28;19937;-76
2023/02/20 04:51:37;;;;;;;0.10;0.10;;;6.80;99.90;;;;;;4977192;28;20049;-76
2023/02/20 04:54:04;;;;;;;0.10;0.10;;;6.80;99.90;;;;;;4976341;28;20488;-76
2023/02/20 04:56:29;;;;;;;0.10;0.10;;;6.80;99.90;;;;;;4977065;28;20081;-77
2023/02/20 04:58:55;;;;;;;0.10;0.10;;;6.80;99.90;;;;;;4977635;28;20547;-77
2023/02/20 05:01:20;;;;;;;0.10;0.10;;;6.80;99.90;;;;;;4975746;28;20105;-76
2023/02/20 05:03:46;;;;;;;0.05;0.05;;;6.80;99.90;;;;;;4977540;28;20047;-76
2023/02/20 05:06:11;;;;;;;0.10;0.10;;;6.80;99.90;;;;;;4976931;28;20101;-76
2023/02/20 05:08:37;;;;;;;0.20;0.20;;;6.70;99.90;;;;;;4977576;28;20041;-76
2023/02/20 05:11:05;;;;;;;0.15;0.15;;;6.80;99.90;;;;;;4976940;28;20459;-77
2023/02/20 05:13:31;;;;;;;0.10;0.10;;;6.70;99.90;;;;;;4977022;28;20073;-76
2023/02/20 05:15:56;;;;;;;0.10;0.10;;;6.80;99.90;;;;;;4976979;28;20031;-76
2023/02/20 05:18:26;;;;;;;0.10;0.10;;;6.80;99.90;;;;;;4975844;28;20030;-76
2023/02/20 05:23:36;;;;;;;0.10;0.10;;;6.80;99.90;;;;;;4976862;28;20122;-76
2023/02/20 05:26:02;;;;;;;0.00;0.00;;;6.70;99.90;;;;;;4975474;28;20087;-76
2023/02/20 05:28:27;;;;;;;0.03;0.03;;;6.70;99.90;;;;;;4975733;28;20035;-76
2023/02/20 05:30:53;;;;;;;0.10;0.10;;;6.70;99.90;;;;;;4976418;28;20093;-77
2023/02/20 05:33:18;;;;;;;0.10;0.10;;;6.80;99.90;;;;;;4976988;28;20035;-77
2023/02/20 05:35:44;;;;;;;0.10;0.10;;;6.80;99.90;;;;;;4975045;28;20034;-77
2023/02/20 05:38:16;;;;;;;0.10;0.10;;;6.80;99.90;;;;;;4975531;28;20046;-77
2023/02/20 05:40:44;;;;;;;0.10;0.10;;;6.80;99.90;;;;;;4976782;28;20057;-76
2023/02/20 05:43:10;;;;;;;0.10;0.10;;;6.70;99.90;;;;;;4976247;28;20035;-77
2023/02/20 05:45:35;;;;;;;0.10;0.10;;;6.70;99.90;;;;;;4977367;28;20105;-77
2023/02/20 05:48:01;;;;;;;0.10;0.10;;;6.80;99.90;;;;;;4990975;28;20101;-76
2023/02/20 05:50:26;;;;;;;0.00;0.00;;;6.80;99.90;;;;;;4975397;28;20471;-77
2023/02/20 05:52:52;;;;;;;0.10;0.10;;;6.80;99.90;;;;;;4974718;28;20101;-77
2023/02/20 05:55:17;;;;;;;0.10;0.10;;;6.80;99.90;;;;;;4976399;28;20476;-76
2023/02/20 05:57:43;;;;;;;0.10;0.10;;;6.80;99.90;;;;;;4975872;28;20026;-77
2023/02/20 06:00:09;;;;;;;0.10;0.10;;;6.80;99.90;;;;;;4976909;28;20023;-76
2023/02/20 06:02:35;;;;;;;0.10;0.10;;;6.90;99.90;;;;;;4991089;28;20074;-76
2023/02/20 06:05:00;;;;;;;0.10;0.10;;;6.80;99.90;;;;;;4976602;28;20015;-77
2023/02/20 06:07:29;;;;;;;0.08;0.08;;;6.80;99.90;;;;;;4976219;28;20369;-76
2023/02/20 06:09:54;;;;;;;0.00;0.00;;;6.80;99.90;;;;;;4976379;28;20480;-76
2023/02/20 06:12:20;;;;;;;0.10;0.10;;;6.90;99.90;;;;;;4976412;28;20033;-76
2023/02/20 06:14:45;;;;;;;0.00;0.00;;;6.90;99.90;;;;;;4976479;28;20026;-77
2023/02/20 06:17:11;;;;;;;0.03;0.03;;;6.90;99.90;;;;;;4976336;28;20097;-76
2023/02/20 06:19:36;;;;;;;0.10;0.10;;;6.90;99.90;;;;;;4975958;28;20488;-76
2023/02/20 06:22:02;;;;;;;0.03;0.03;;;6.90;99.90;;;;;;4976204;28;20038;-76
2023/02/20 06:24:28;;;;;;;0.10;0.10;;;6.90;99.90;;;;;;4976004;28;20066;-76
2023/02/20 06:26:54;;;;;;;0.10;0.10;;;7.00;99.90;;;;;;4976393;28;20030;-76
2023/02/20 06:29:19;;;;;;;0.10;0.10;;;7.00;99.90;;;;;;4975781;28;20395;-76
2023/02/20 06:31:45;;;;;;;0.10;0.10;;;6.90;99.90;;;;;;4976326;28;20503;-76
2023/02/20 06:34:11;;;;;;;0.10;0.10;;;6.90;99.90;;;;;;4975508;28;20435;-76
2023/02/20 06:36:39;;;;;;;0.10;0.10;;;6.90;99.90;;;;;;4976115;28;20023;-77
2023/02/20 06:39:06;;;;;;;0.10;0.10;;;6.90;99.90;;;;;;4975704;28;20034;-75
2023/02/20 06:41:32;;;;;;;0.10;0.10;;;6.90;99.90;;;;;;4990687;28;20035;-76
2023/02/20 06:43:58;;;;;;;0.10;0.10;;;6.90;99.90;;;;;;4976374;28;20041;-76
2023/02/20 06:46:23;;;;;;;0.10;0.10;;;6.90;99.90;;;;;;4976601;28;20027;-77
2023/02/20 06:48:52;;;;;;;0.00;0.00;;;7.00;99.90;;;;;;4975934;28;20027;-76
2023/02/20 06:51:19;;;;;;;0.10;0.10;;;7.00;99.90;;;;;;4975252;28;20441;-77
2023/02/20 06:53:45;;;;;;;0.10;0.10;;;7.10;99.90;;;;;;4976140;28;20019;-77
2023/02/20 06:56:19;;;;;;;0.05;0.05;;;7.00;99.90;;;;;;4975542;28;20029;-77
2023/02/20 06:58:49;;;;;;;0.10;0.10;;;7.00;99.90;;;;;;4976198;28;20019;-76
2023/02/20 07:01:19;;;;;;;0.10;0.10;;;7.10;99.90;;;;;;4975668;28;20035;-76
2023/02/20 07:03:47;;;;;;;0.10;0.10;;;7.10;99.90;;;;;;4975282;28;20027;-76
2023/02/20 07:06:13;;;;;;;0.05;0.05;;;7.10;99.90;;;;;;4990900;28;20023;-77
2023/02/20 07:08:39;;;;;;;0.10;0.10;;;7.10;99.90;;;;;;4977962;28;20034;-76
2023/02/20 07:11:04;;;;;;;0.10;0.10;;;7.10;99.90;;;;;;4977903;28;20030;-76
2023/02/20 07:13:30;;;;;;;0.10;0.10;;;7.10;99.90;;;;;;4978066;28;20066;-76
2023/02/20 07:15:55;;;;;;;0.10;0.10;;;7.20;99.90;;;;;;4964293;28;20027;-77
2023/02/20 07:18:22;;;;;;;0.10;0.10;;;7.30;99.90;;;;;;4960013;29;20034;-77
2023/02/20 07:20:50;;;;;;;0.10;0.10;;;7.30;99.90;;;;;;4971752;28;20021;-76
2023/02/20 07:23:15;;;;;;;0.10;0.10;;;7.40;99.90;;;;;;5030632;23;20462;-76
2023/02/20 07:25:41;;;;;;;0.10;0.10;;;7.40;99.90;;;;;;5017972;28;20026;-76
2023/02/20 07:28:07;;;;;;;0.10;0.10;;;7.40;99.90;;;;;;5007825;28;20029;-75
2023/02/20 07:30:33;;;;;;;0.00;0.00;;;7.40;99.90;;;;;;4996751;28;20026;-76
2023/02/20 07:32:59;;;;;;;0.10;0.10;;;7.40;99.90;;;;;;4998824;28;20065;-75
2023/02/20 07:35:24;;;;;;;0.10;0.10;;;7.40;99.90;;;;;;4998048;28;20022;-75
2023/02/20 07:37:50;;;;;;;0.10;0.10;;;7.40;99.90;;;;;;4998484;28;20030;-76
2023/02/20 07:40:15;;;;;;;0.10;0.10;;;7.40;99.90;;;;;;4997908;28;20152;-75
2023/02/20 07:42:41;;;;;;;0.10;0.10;;;7.50;99.90;;;;;;4998334;28;20058;-76
2023/02/20 07:45:07;;;;;;;0.10;0.10;;;7.50;99.90;;;;;;4992334;28;20030;-75
2023/02/20 07:47:32;;;;;;;0.08;0.08;;;7.60;99.90;;;;;;4992667;28;20096;-75
2023/02/20 07:49:58;;;;;;;0.10;0.10;;;7.60;99.90;;;;;;5003345;28;20031;-75
2023/02/20 07:52:23;;;;;;;0.10;0.10;;;7.60;99.90;;;;;;5004028;28;20475;-76
2023/02/20 07:54:49;;;;;;;0.10;0.10;;;7.70;99.90;;;;;;4998110;28;20458;-75
2023/02/20 07:57:14;;;;;;;0.10;0.10;;;7.70;99.90;;;;;;4997783;28;20510;-75
2023/02/20 07:59:40;;;;;;;0.13;0.13;;;7.70;99.90;;;;;;4998141;28;20109;-75
2023/02/20 08:02:06;;;;;;;0.10;0.10;;;7.70;99.90;;;;;;4996355;28;20068;-76
2023/02/20 08:04:31;;;;;;;0.00;0.00;;;7.70;99.90;;;;;;4998382;28;20468;-76
2023/02/20 08:06:57;;;;;;;0.10;0.10;;;7.70;99.90;;;;;;5012759;28;20037;-75
2023/02/20 08:09:22;;;;;;;0.08;0.08;;;7.70;99.90;;;;;;4998029;28;20116;-77
2023/02/20 08:11:48;;;;;;;0.10;0.10;;;7.70;99.90;;;;;;4997342;28;20423;-77
2023/02/20 08:14:14;;;;;;;0.10;0.10;;;7.80;99.90;;;;;;5013281;28;20085;-76
2023/02/20 08:16:43;;;;;;;0.10;0.10;;;7.80;99.90;;;;;;4997696;28;20483;-77
2023/02/20 08:19:08;;;;;;;0.10;0.10;;;7.80;99.90;;;;;;4996621;28;20498;-77
2023/02/20 08:21:34;;;;;;;0.10;0.10;;;7.80;99.90;;;;;;4997006;28;20026;-75
2023/02/20 08:23:59;;;;;;;0.10;0.10;;;7.80;99.90;;;;;;4996669;28;20033;-78
2023/02/20 08:26:25;;;;;;;0.10;0.10;;;7.80;99.90;;;;;;4996983;28;20076;-77
2023/02/20 08:28:51;;;;;;;0.10;0.10;;;7.90;99.90;;;;;;4997962;28;20022;-77
2023/02/20 08:31:17;;;;;;;0.10;0.10;;;7.90;99.90;;;;;;4998630;28;20032;-76
2023/02/20 08:33:43;;;;;;;0.10;0.10;;;7.90;99.90;;;;;;4998511;28;20134;-77
2023/02/20 08:36:08;;;;;;;0.10;0.10;;;7.90;99.90;;;;;;5002292;28;20048;-77
2023/02/20 08:38:36;;;;;;;0.10;0.10;;;7.90;99.90;;;;;;4997859;28;20417;-77
2023/02/20 08:41:07;;;;;;;0.10;0.10;;;7.90;99.90;;;;;;4999420;28;20081;-77
2023/02/20 08:43:34;;;;;;;0.10;0.10;;;8.00;99.90;;;;;;5022329;23;20053;-77
2023/02/20 08:46:00;;;;;;;0.10;0.10;;;8.00;99.90;;;;;;5018131;28;20092;-77
2023/02/20 08:48:25;;;;;;;0.10;0.10;;;8.00;99.90;;;;;;5013879;28;20077;-76
2023/02/20 08:50:52;;;;;;;0.10;0.10;;;8.00;99.90;;;;;;5011394;28;20399;-77
2023/02/20 08:53:18;;;;;;;0.10;0.10;;;8.00;99.90;;;;;;5017909;28;20022;-77
2023/02/20 08:55:43;;;;;;;0.10;0.10;;;8.10;99.90;;;;;;5016999;28;20544;-77
2023/02/20 08:58:09;;;;;;;0.10;0.10;;;8.00;99.90;;;;;;5017247;28;20037;-76
2023/02/20 09:00:34;;;;;;;0.10;0.10;;;8.10;99.90;;;;;;5016546;28;20029;-77
2023/02/20 09:03:00;;;;;;;0.10;0.10;;;8.20;99.90;;;;;;5017150;28;20041;-77
2023/02/20 09:05:26;;;;;;;0.10;0.10;;;8.30;99.90;;;;;;5006871;28;20018;-77
2023/02/20 09:07:51;;;;;;;0.10;0.10;;;8.40;99.90;;;;;;4997211;28;20050;-77
2023/02/20 09:10:20;;;;;;;0.10;0.10;;;8.40;99.90;;;;;;4997088;28;20071;-77
2023/02/20 09:12:46;;;;;;;0.10;0.10;;;8.40;99.90;;;;;;4997321;28;20109;-77
2023/02/20 09:15:12;;;;;;;0.10;0.10;;;8.50;99.90;;;;;;4997184;28;20068;-76
2023/02/20 09:17:38;;;;;;;0.10;0.10;;;8.60;99.90;;;;;;4996842;28;20430;-77
2023/02/20 09:20:08;;;;;;;0.10;0.10;;;8.50;99.90;;;;;;4995927;28;20097;-76
2023/02/20 09:22:34;;;;;;;0.10;0.10;;;8.60;99.90;;;;;;4997007;28;20018;-77
2023/02/20 09:25:00;;;;;;;0.10;0.10;;;8.70;99.90;;;;;;4996762;28;20019;-77
2023/02/20 09:27:25;;;;;;;0.10;0.10;;;8.90;99.90;;;;;;4996507;28;20030;-77
2023/02/20 09:29:51;;;;;;;0.00;0.00;;;9.00;99.90;;;;;;4996772;28;20026;-77
2023/02/20 09:32:17;;;;;;;0.10;0.10;;;9.10;99.90;;;;;;4997066;28;20022;-77
2023/02/20 09:34:43;;;;;;;0.10;0.10;;;9.10;99.90;;;;;;4996569;28;20054;-75
2023/02/20 09:37:09;;;;;;;0.03;0.03;;;9.10;99.90;;;;;;5030494;28;20025;-75
2023/02/20 09:39:35;;;;;;;0.10;0.10;;;9.20;99.90;;;;;;5014485;28;20098;-77
2023/02/20 09:42:46;;;;;;;0.20;0.20;;;9.20;99.90;;;;;;5013402;28;20065;-76
2023/02/20 09:45:17;;;;;;;0.10;0.10;;;9.30;99.90;;;;;;5014546;28;20574;-77
2023/02/20 09:47:55;;;;;;;0.10;0.10;;;9.40;99.90;;;;;;4999629;28;20026;-77
2023/02/20 09:50:40;;;;;;;0.10;0.10;;;9.40;99.90;;;;;;5005346;28;20103;-76
2023/02/20 09:53:20;;;;;;;0.10;0.10;;;9.30;99.90;;;;;;5000331;28;20479;-76
2023/02/20 09:55:48;;;;;;;0.10;0.10;;;9.30;99.90;;;;;;4996435;28;20510;-76
2023/02/20 09:58:26;;;;;;;0.10;0.10;;;9.20;99.90;;;;;;4997780;28;20570;-76
2023/02/20 10:00:55;;;;;;;0.13;0.13;;;9.10;99.90;;;;;;4996180;28;20117;-76
2023/02/20 10:03:34;;;;;;;0.10;0.10;;;9.10;99.90;;;;;;4996379;28;20049;-76
2023/02/20 10:06:02;;;;;;;0.10;0.10;;;9.00;99.90;;;;;;5010666;28;20513;-76
2023/02/20 10:08:28;;;;;;;0.10;0.10;;;8.90;99.90;;;;;;4998482;28;20034;-77
2023/02/20 10:11:02;;;;;;;0.10;0.10;;;8.90;99.90;;;;;;4994450;28;20081;-75
2023/02/20 10:13:34;;;;;;;0.10;0.10;;;8.90;99.90;;;;;;5043495;23;20422;-76
2023/02/20 10:16:02;;;;;;;0.10;0.10;;;8.90;99.90;;;;;;5014895;28;20033;-77
2023/02/20 10:18:33;;;;;;;0.20;0.20;;;8.80;99.90;;;;;;5023852;28;20110;-77
2023/02/20 10:21:27;;;;;;;0.10;0.10;;;8.80;99.90;;;;;;5022642;28;20026;-78
2023/02/20 10:24:05;;;;;;;0.20;0.20;;;8.80;99.90;;;;;;5016104;28;20021;-77
2023/02/20 10:26:36;;;;;;;0.20;0.20;;;8.90;99.90;;;;;;5014538;28;20077;-77
2023/02/20 10:29:26;;;;;;;0.10;0.10;;;9.00;99.90;;;;;;5015711;28;20466;-77
2023/02/20 10:32:06;;;;;;;0.10;0.10;;;9.00;99.90;;;;;;5021467;23;20060;-77
2023/02/20 10:34:40;;;;;;;0.10;0.10;;;8.90;99.90;;;;;;4998163;28;20029;-77
2023/02/20 10:37:19;;;;;;;0.10;0.10;;;8.90;99.90;;;;;;5015823;28;20091;-77
2023/02/20 10:40:07;;;;;;;0.10;0.10;;;8.90;99.90;;;;;;5015435;28;20041;-77
2023/02/20 10:42:44;;;;;;;0.10;0.10;;;8.90;99.90;;;;;;5006323;28;20038;-77
2023/02/20 10:45:21;;;;;;;0.20;0.20;;;8.90;99.90;;;;;;5019234;28;20018;-78
2023/02/20 10:47:57;;;;;;;0.10;0.10;;;8.90;99.90;;;;;;5018867;28;20033;-77
2023/02/20 10:50:32;;;;;;;0.10;0.10;;;8.90;99.90;;;;;;4998107;28;20030;-77
2023/02/20 10:53:21;;;;;;;0.10;0.10;;;9.00;99.90;;;;;;4998194;28;20026;-77
2023/02/20 10:56:26;;;;;;;0.20;0.20;;;9.10;99.90;;;;;;4999631;28;20057;-77
2023/02/20 10:59:05;;;;;;;0.10;0.10;;;9.00;99.90;;;;;;4980033;28;20026;-78
2023/02/20 11:01:33;;;;;;;0.10;0.10;;;9.00;99.90;;;;;;4995712;28;20507;-77
2023/02/20 11:04:04;;;;;;;0.10;0.10;;;9.00;99.90;;;;;;5003274;28;20537;-77
2023/02/20 11:06:35;;;;;;;0.20;0.20;;;9.00;99.90;;;;;;5018617;28;20068;-77
2023/02/20 11:09:01;;;;;;;0.10;0.10;;;9.00;99.90;;;;;;5001204;28;20026;-77
2023/02/20 11:11:44;;;;;;;0.10;0.10;;;9.00;99.90;;;;;;5001305;28;20037;-77
2023/02/20 11:14:21;;;;;;;0.10;0.10;;;8.90;99.90;;;;;;5018592;28;20517;-77
2023/02/20 11:16:53;;;;;;;0.20;0.20;;;9.00;99.90;;;;;;5018804;28;20041;-77
2023/02/20 11:19:25;;;;;;;0.20;0.20;;;9.00;99.90;;;;;;5000638;28;20041;-76
2023/02/20 11:21:51;;;;;;;0.20;0.20;;;8.90;99.90;;;;;;5018548;28;20030;-78
2023/02/20 11:24:27;;;;;;;0.10;0.10;;;8.90;99.90;;;;;;5018307;28;20498;-77
2023/02/20 11:27:12;;;;;;;0.10;0.10;;;8.90;99.90;;;;;;5000741;28;20026;-77
2023/02/20 11:29:55;;;;;;;0.10;0.10;;;9.00;99.90;;;;;;5018800;28;20509;-77
2023/02/20 11:32:28;;;;;;;0.20;0.20;;;9.00;99.90;;;;;;5017916;28;20040;-77
2023/02/20 11:35:12;;;;;;;;;;;9.00;99.90;;;;;;5018093;28;20029;-77
2023/02/20 11:37:38;;;;;;;0.20;0.20;;;8.90;99.90;;;;;;5000747;28;19917;-77
2023/02/20 11:40:14;;;;;;;0.10;0.10;;;8.90;99.90;;;;;;4961850;28;20038;-77
2023/02/20 11:42:39;;;;;;;0.10;0.10;;;9.00;99.90;;;;;;4982537;28;20385;-77
2023/02/20 11:45:28;;;;;;;0.20;0.20;;;9.00;99.90;;;;;;4980073;28;20037;-77
2023/02/20 11:48:08;;;;;;;0.10;0.10;;;9.00;99.90;;;;;;4991512;28;20022;-77
2023/02/20 11:50:44;;;;;;;0.10;0.10;;;9.00;99.90;;;;;;5019431;28;20041;-78
2023/02/20 11:53:34;;;;;;;0.10;0.10;;;8.90;99.90;;;;;;4999729;28;20112;-77
2023/02/20 11:56:16;;;;;;;0.10;0.10;;;8.90;99.90;;;;;;4978833;28;20112;-76
2023/02/20 11:58:44;;;;;;;0.10;0.10;;;8.90;99.90;;;;;;4988623;28;20026;-78
2023/02/20 12:01:31;;;;;;;0.10;0.10;;;8.90;99.90;;;;;;5000500;28;20025;-78
2023/02/20 12:03:58;;;;;;;0.10;0.10;;;8.90;99.90;;;;;;5040542;23;20050;-78
2023/02/20 12:06:33;;;;;;;0.17;0.17;;;8.90;99.90;;;;;;5019083;28;20054;-78
2023/02/20 12:09:03;;;;;;;0.10;0.10;;;8.90;99.90;;;;;;5003601;28;20057;-79
2023/02/20 12:11:29;;;;;;;0.20;0.20;;;8.90;99.90;;;;;;5003881;28;20033;-78
2023/02/20 12:13:58;;;;;;;0.10;0.10;;;8.70;99.90;;;;;;5001506;28;20048;-78
2023/02/20 12:16:33;;;;;;;0.20;0.20;;;8.80;99.90;;;;;;5003577;28;20030;-78
2023/02/20 12:19:14;;;;;;;0.10;0.10;;;8.70;99.90;;;;;;5017199;28;20064;-78
2023/02/20 12:22:07;;;;;;;0.10;0.10;;;8.70;99.90;;;;;;5008678;23;20015;-78
2023/02/20 12:25:10;;;;;;;0.20;0.20;;;8.60;99.90;;;;;;5039432;28;20021;-78
2023/02/20 12:27:49;;;;;;;0.10;0.10;;;8.60;99.90;;;;;;5040876;28;20025;-78
2023/02/20 12:30:17;;;;;;;0.10;0.10;;;8.50;99.90;;;;;;5040904;28;20017;-78
2023/02/20 12:32:54;;;;;;;0.10;0.10;;;8.50;99.90;;;;;;5031978;28;20033;-79
2023/02/20 12:35:31;;;;;;;0.10;0.10;;;8.40;99.90;;;;;;5024508;28;20018;-78
2023/02/20 12:38:38;;;;;;;0.20;0.20;;;8.30;99.90;;;;;;5022889;28;20077;-78
2023/02/20 12:41:15;;;;;;;0.20;0.20;;;8.30;99.90;;;;;;5000230;28;20042;-78
2023/02/20 12:43:53;;;;;;;0.10;0.10;;;8.20;99.90;;;;;;5003768;28;20018;-78
2023/02/20 12:46:29;;;;;;;0.10;0.10;;;8.20;99.90;;;;;;5002687;28;20080;-78
2023/02/20 12:49:34;;;;;;;0.20;0.20;;;8.20;99.90;;;;;;4999509;28;20026;-78
2023/02/20 12:52:18;;;;;;;0.10;0.10;;;8.20;99.90;;;;;;4999603;28;20030;-78
2023/02/20 12:55:05;;;;;;;0.10;0.10;;;8.20;99.90;;;;;;4999700;28;20030;-78
2023/02/20 12:58:08;;;;;;;0.10;0.10;;;8.30;99.90;;;;;;4995686;28;20031;-78
2023/02/20 13:00:40;;;;;;;0.10;0.10;;;8.30;99.90;;;;;;4982283;28;20029;-78
2023/02/20 13:03:38;;;;;;;0.10;0.10;;;8.40;99.90;;;;;;4983572;28;20121;-78
2023/02/20 13:06:05;;;;;;;0.10;0.10;;;8.40;99.90;;;;;;4998838;28;20388;-78
2023/02/20 13:08:37;;;;;;;0.10;0.10;;;8.30;99.90;;;;;;5000383;28;20501;-78
2023/02/20 13:11:05;;;;;;;0.10;0.10;;;8.30;99.90;;;;;;5000616;28;20030;-77
2023/02/20 13:14:01;;;;;;;0.10;0.10;;;8.20;99.90;;;;;;5016152;28;20053;-79
2023/02/20 13:16:38;;;;;;;0.10;0.10;;;8.20;99.90;;;;;;5020069;28;20120;-78
2023/02/20 13:19:21;;;;;;;0.10;0.10;;;8.20;99.90;;;;;;5007853;28;20033;-78
2023/02/20 13:21:46;;;;;;;0.10;0.10;;;8.20;99.90;;;;;;5017901;28;20491;-78
2023/02/20 13:24:18;;;;;;;0.10;0.10;;;8.20;99.90;;;;;;5001926;28;20030;-78
2023/02/20 13:26:52;;;;;;;0.10;0.10;;;8.20;99.90;;;;;;5001740;28;20058;-78
2023/02/20 13:29:22;;;;;;;0.00;0.00;;;8.20;99.90;;;;;;5026376;23;20037;-75
2023/02/20 13:31:56;;;;;;;0.08;0.08;;;8.20;99.90;;;;;;4998097;28;20399;-75
2023/02/20 13:34:27;;;;;;;0.10;0.10;;;8.30;99.90;;;;;;4995180;28;20037;-75
2023/02/20 13:36:53;;;;;;;0.10;0.10;;;8.30;99.90;;;;;;4995791;28;20022;-75
2023/02/20 13:39:18;;;;;;;0.20;0.20;;;8.30;99.90;;;;;;4978250;28;20034;-75
2023/02/20 13:41:53;;;;;;;0.10;0.10;;;8.30;99.90;;;;;;4994939;28;20015;-75